Time;durP1;ratioP1;P1;durP2;ratioP2;P2;SDS_P1;SDS_P2;PMS_P1;PMS_P2;Temp;Humidity;BMP_temperature;BMP_pressure;BME280_temperature;BME280_humidity;BME280_pressure;Samples;Min_cycle;Max_cycle;Signal;HPM_P1;HPM_P2
2022/02/05 00:02:09;;;;;;;105.47;66.75;;;;;;;;;;5026170;28;20029;-77
2022/02/05 00:04:36;;;;;;;89.80;56.65;;;;;;;;;;5027599;28;20021;-76
2022/02/05 00:07:04;;;;;;;81.57;54.03;;;;;;;;;;5023976;28;20032;-77
2022/02/05 00:15:03;;;;;;;85.47;56.05;;;;;;;;;;5014287;28;20431;-77
2022/02/05 00:42:05;;;;;;;123.00;77.03;;;;;;;;;;5013369;28;20480;-77
2022/02/05 00:44:31;;;;;;;102.53;67.18;;;;;;;;;;5025879;28;20136;-74
2022/02/05 00:46:57;;;;;;;113.55;69.82;;;;;;;;;;5044104;28;20100;-76
2022/02/05 00:49:23;;;;;;;116.10;73.43;;;;;;;;;;5031848;28;20032;-77
2022/02/05 00:51:55;;;;;;;97.05;63.47;;;;;;;;;;5013569;28;20026;-77
2022/02/05 00:54:24;;;;;;;89.90;57.38;;;;;;;;;;5026130;28;20056;-77
2022/02/05 00:59:31;;;;;;;82.30;52.47;;;;;;;;;;5019399;28;20030;-77
2022/02/05 01:01:57;;;;;;;86.32;55.40;;;;;;;;;;5016915;28;20109;-77
2022/02/05 01:04:24;;;;;;;87.88;51.85;;;;;;;;;;5012937;28;20021;-77
2022/02/05 01:06:50;;;;;;;98.28;58.85;;;;;;;;;;5011581;28;20084;-77
2022/02/05 01:09:22;;;;;;;95.82;60.60;;;;;;;;;;5017897;28;20022;-77
2022/02/05 01:11:49;;;;;;;100.00;61.60;;;;;;;;;;5012613;28;20030;-77
2022/02/05 01:14:16;;;;;;;107.53;69.70;;;;;;;;;;5012474;28;20026;-74
2022/02/05 01:19:24;;;;;;;143.80;89.20;;;;;;;;;;5026806;28;20030;-75
2022/02/05 01:21:54;;;;;;;136.27;83.65;;;;;;;;;;5030294;28;20025;-76
2022/02/05 01:24:22;;;;;;;154.05;94.72;;;;;;;;;;5031569;28;20021;-76
2022/02/05 01:26:58;;;;;;;166.70;98.63;;;;;;;;;;5014472;28;20539;-76
2022/02/05 01:32:14;;;;;;;;;;;;;;;;;;5025829;28;20473;-75
2022/02/05 01:34:50;;;;;;;145.30;84.57;;;;;;;;;;5031417;28;19952;-75
2022/02/05 01:56:01;;;;;;;77.93;46.45;;;;;;;;;;5012369;28;20030;-75
2022/02/05 02:07:23;;;;;;;100.80;64.25;;;;;;;;;;5011909;28;20080;-77
2022/02/05 02:12:07;;;;;;;141.82;86.70;;;;;;;;;;5031078;28;20159;-75
2022/02/05 02:14:42;;;;;;;148.93;91.35;;;;;;;;;;5034791;28;20017;-75
2022/02/05 02:21:06;;;;;;;136.13;88.32;;;;;;;;;;5029147;28;20546;-77
2022/02/05 02:25:55;;;;;;;112.13;69.38;;;;;;;;;;5034673;28;20599;-75
2022/02/05 02:28:37;;;;;;;107.55;64.22;;;;;;;;;;5033611;28;20106;-75
2022/02/05 02:31:08;;;;;;;151.45;86.32;;;;;;;;;;5034707;28;20025;-75
2022/02/05 02:33:40;;;;;;;166.07;87.47;;;;;;;;;;5034922;28;20014;-75
2022/02/05 02:36:16;;;;;;;135.63;81.07;;;;;;;;;;5034237;28;20061;-77
2022/02/05 02:38:48;;;;;;;99.93;62.38;;;;;;;;;;5034659;28;20527;-76
2022/02/05 02:41:28;;;;;;;97.30;64.53;;;;;;;;;;5034787;28;20068;-75
2022/02/05 02:43:54;;;;;;;102.40;65.88;;;;;;;;;;5019231;28;20018;-75
2022/02/05 02:46:21;;;;;;;89.07;60.33;;;;;;;;;;5021646;28;20454;-75
2022/02/05 02:48:48;;;;;;;117.05;69.85;;;;;;;;;;5015427;28;20033;-74
2022/02/05 02:56:51;;;;;;;146.10;89.57;;;;;;;;;;5026066;28;20044;-75
2022/02/05 02:59:37;;;;;;;162.77;104.15;;;;;;;;;;5027359;28;20029;-75
2022/02/05 03:02:12;;;;;;;195.23;117.03;;;;;;;;;;5020108;28;20084;-75
2022/02/05 03:04:38;;;;;;;193.77;117.82;;;;;;;;;;5034302;28;20032;-74
2022/02/05 03:07:05;;;;;;;195.00;117.50;;;;;;;;;;5027602;28;20033;-75
2022/02/05 03:09:31;;;;;;;194.95;119.78;;;;;;;;;;5032641;28;20068;-75
2022/02/05 03:11:57;;;;;;;196.40;116.30;;;;;;;;;;5032739;28;20503;-78
2022/02/05 03:14:23;;;;;;;191.90;112.82;;;;;;;;;;5023257;28;20026;-74
2022/02/05 03:16:52;;;;;;;175.77;107.75;;;;;;;;;;5015077;28;20505;-74
2022/02/05 03:19:18;;;;;;;173.93;115.28;;;;;;;;;;5032060;28;20132;-75
2022/02/05 03:21:44;;;;;;;207.93;127.88;;;;;;;;;;5032468;28;20021;-75
2022/02/05 03:24:11;;;;;;;265.55;150.43;;;;;;;;;;5031850;28;20147;-75
2022/02/05 03:26:38;;;;;;;231.73;136.02;;;;;;;;;;5018134;28;20030;-75
2022/02/05 03:29:06;;;;;;;209.45;135.10;;;;;;;;;;5014917;28;20072;-75
2022/02/05 03:31:33;;;;;;;233.75;141.30;;;;;;;;;;5013293;28;20053;-75
2022/02/05 03:33:59;;;;;;;241.65;142.13;;;;;;;;;;5014594;28;20033;-75
2022/02/05 03:36:25;;;;;;;223.13;141.35;;;;;;;;;;5014464;28;20025;-75
2022/02/05 03:38:51;;;;;;;226.35;142.35;;;;;;;;;;5014217;28;20123;-75
2022/02/05 03:41:17;;;;;;;214.52;135.73;;;;;;;;;;5014136;28;20029;-74
2022/02/05 03:43:43;;;;;;;197.35;121.75;;;;;;;;;;5014410;28;20029;-75
2022/02/05 03:46:09;;;;;;;208.82;129.70;;;;;;;;;;5021726;28;20132;-75
2022/02/05 03:48:35;;;;;;;186.43;122.90;;;;;;;;;;5033275;28;20115;-75
2022/02/05 03:51:01;;;;;;;198.52;123.18;;;;;;;;;;5025772;28;20030;-74
2022/02/05 03:53:27;;;;;;;198.30;119.25;;;;;;;;;;5019354;28;20460;-74
2022/02/05 03:55:53;;;;;;;186.95;119.03;;;;;;;;;;5014410;28;20021;-74
2022/02/05 03:58:20;;;;;;;193.45;122.25;;;;;;;;;;5013293;28;20036;-75
2022/02/05 04:00:46;;;;;;;203.85;121.78;;;;;;;;;;5033219;28;20033;-75
2022/02/05 04:03:12;;;;;;;156.55;96.65;;;;;;;;;;5031696;28;20052;-75
2022/02/05 04:05:38;;;;;;;159.90;98.63;;;;;;;;;;5032695;28;20034;-74
2022/02/05 04:08:07;;;;;;;168.63;106.55;;;;;;;;;;5032683;28;20167;-74
2022/02/05 04:10:42;;;;;;;181.13;110.43;;;;;;;;;;5032853;28;20494;-74
2022/02/05 04:16:42;;;;;;;149.70;97.30;;;;;;;;;;5032439;28;20036;-75
2022/02/05 04:18:53;;;;;;;78.07;51.28;;;;;;;;;;5011672;28;20088;-74
2022/02/05 04:21:19;;;;;;;82.40;53.25;;;;;;;;;;5020108;28;20049;-75
2022/02/05 04:23:47;;;;;;;69.80;46.03;;;;;;;;;;5032777;28;20056;-74
2022/02/05 04:26:14;;;;;;;67.13;44.25;;;;;;;;;;5032771;28;20044;-74
2022/02/05 04:28:40;;;;;;;68.88;46.78;;;;;;;;;;5031260;28;20472;-74
2022/02/05 04:31:06;;;;;;;73.90;47.60;;;;;;;;;;5031152;28;20026;-74
2022/02/05 04:33:32;;;;;;;64.13;43.75;;;;;;;;;;5031140;28;20108;-74
2022/02/05 04:35:58;;;;;;;68.40;47.25;;;;;;;;;;5031503;28;20079;-74
2022/02/05 04:38:26;;;;;;;74.32;46.53;;;;;;;;;;5032337;28;20025;-74
2022/02/05 04:41:00;;;;;;;67.00;46.47;;;;;;;;;;5032271;28;20017;-74
2022/02/05 05:04:45;;;;;;;69.57;45.25;;;;;;;;;;5012760;28;20029;-75
2022/02/05 05:20:24;;;;;;;62.80;43.25;;;;;;;;;;5013056;28;20100;-77
2022/02/05 05:22:50;;;;;;;66.95;42.80;;;;;;;;;;5012666;28;20025;-76
2022/02/05 05:25:16;;;;;;;53.70;32.63;;;;;;;;;;5012260;28;20017;-76
2022/02/05 05:27:43;;;;;;;63.38;38.03;;;;;;;;;;5012610;28;20069;-76
2022/02/05 05:30:09;;;;;;;67.30;35.17;;;;;;;;;;5024128;28;20064;-76
2022/02/05 05:32:35;;;;;;;53.67;37.28;;;;;;;;;;5030006;28;20025;-75
2022/02/05 05:35:02;;;;;;;56.28;35.75;;;;;;;;;;5031647;28;20124;-75
2022/02/05 05:37:28;;;;;;;52.35;35.85;;;;;;;;;;5025561;28;20500;-76
2022/02/05 05:39:54;;;;;;;57.92;38.45;;;;;;;;;;5011210;28;20036;-75
2022/02/05 05:42:27;;;;;;;56.47;38.20;;;;;;;;;;5012168;28;20060;-76
2022/02/05 05:52:21;;;;;;;80.57;42.80;;;;;;;;;;5012300;28;20477;-76
2022/02/05 05:54:48;;;;;;;95.70;55.83;;;;;;;;;;5018265;28;20026;-76
2022/02/05 05:57:14;;;;;;;116.38;61.60;;;;;;;;;;5016077;28;20032;-76
2022/02/05 05:59:40;;;;;;;130.07;68.00;;;;;;;;;;5030902;28;20026;-76
2022/02/05 06:02:07;;;;;;;103.82;61.83;;;;;;;;;;5031141;28;20022;-76
2022/02/05 06:04:33;;;;;;;90.50;53.10;;;;;;;;;;5026538;28;20058;-76
2022/02/05 06:06:59;;;;;;;74.07;47.55;;;;;;;;;;5012017;28;20084;-76
2022/02/05 06:09:25;;;;;;;96.05;56.97;;;;;;;;;;5010949;28;20058;-74
2022/02/05 06:11:51;;;;;;;75.80;48.75;;;;;;;;;;5012403;28;20045;-77
2022/02/05 06:14:22;;;;;;;117.72;68.03;;;;;;;;;;5012164;28;20025;-75
2022/02/05 06:16:52;;;;;;;96.93;58.38;;;;;;;;;;5010861;28;20026;-75
2022/02/05 06:19:20;;;;;;;120.28;70.40;;;;;;;;;;5011820;28;20417;-74
2022/02/05 06:21:46;;;;;;;95.50;59.70;;;;;;;;;;5011983;28;20473;-75
2022/02/05 06:24:12;;;;;;;105.43;63.15;;;;;;;;;;5011689;28;20022;-75
2022/02/05 06:26:38;;;;;;;87.10;52.38;;;;;;;;;;5027242;28;20061;-74
2022/02/05 06:29:04;;;;;;;96.25;60.88;;;;;;;;;;5029621;28;20025;-76
2022/02/05 06:31:30;;;;;;;90.25;59.25;;;;;;;;;;5029584;28;20029;-75
2022/02/05 06:33:56;;;;;;;132.32;86.05;;;;;;;;;;5029601;28;20040;-75
2022/02/05 06:36:22;;;;;;;163.05;102.30;;;;;;;;;;5013840;28;20021;-76
2022/02/05 06:38:48;;;;;;;177.88;112.22;;;;;;;;;;5010704;28;20026;-76
2022/02/05 06:41:15;;;;;;;200.55;131.10;;;;;;;;;;5011830;28;20022;-75
2022/02/05 06:43:41;;;;;;;207.35;132.13;;;;;;;;;;5011622;28;20040;-77
2022/02/05 06:46:07;;;;;;;208.70;137.18;;;;;;;;;;5010280;28;20077;-76
2022/02/05 06:48:33;;;;;;;218.52;144.80;;;;;;;;;;5011826;28;20049;-76
2022/02/05 06:50:59;;;;;;;221.80;145.13;;;;;;;;;;5011812;28;20105;-75
2022/02/05 06:53:25;;;;;;;206.65;130.95;;;;;;;;;;5012006;28;20034;-74
2022/02/05 06:55:51;;;;;;;203.50;134.52;;;;;;;;;;5022106;28;20026;-75
2022/02/05 06:58:17;;;;;;;187.85;124.78;;;;;;;;;;5010944;28;20169;-76
2022/02/05 07:00:43;;;;;;;179.20;119.95;;;;;;;;;;5031933;28;20029;-76
2022/02/05 07:03:11;;;;;;;174.10;119.05;;;;;;;;;;5033946;28;20021;-76
2022/02/05 07:05:37;;;;;;;171.13;118.10;;;;;;;;;;5019420;28;20029;-76
2022/02/05 07:08:03;;;;;;;182.18;119.18;;;;;;;;;;5021699;28;20472;-74
2022/02/05 07:10:30;;;;;;;183.68;117.32;;;;;;;;;;5032748;28;20036;-75
2022/02/05 07:15:36;;;;;;;162.60;112.85;;;;;;;;;;5027611;28;20448;-79
2022/02/05 07:20:42;;;;;;;177.32;117.00;;;;;;;;;;5022069;28;20472;-76
2022/02/05 07:31:19;;;;;;;190.40;124.07;;;;;;;;;;5029618;28;20071;-75
2022/02/05 07:33:45;;;;;;;162.23;108.40;;;;;;;;;;5032211;28;20037;-76
2022/02/05 07:36:13;;;;;;;150.00;99.28;;;;;;;;;;5017510;28;20028;-75
2022/02/05 07:38:39;;;;;;;142.77;101.82;;;;;;;;;;5021413;28;20017;-78
2022/02/05 07:41:05;;;;;;;154.60;99.78;;;;;;;;;;5032119;28;20022;-76
2022/02/05 07:43:35;;;;;;;147.63;104.45;;;;;;;;;;5031943;28;20031;-76
2022/02/05 07:46:05;;;;;;;152.88;103.35;;;;;;;;;;5031793;28;20057;-77
2022/02/05 07:48:32;;;;;;;152.98;99.85;;;;;;;;;;5033020;28;20032;-75
2022/02/05 07:51:00;;;;;;;157.57;105.30;;;;;;;;;;5025531;28;20057;-75
2022/02/05 07:53:26;;;;;;;161.40;109.93;;;;;;;;;;5032564;28;20022;-76
2022/02/05 07:55:52;;;;;;;146.98;97.35;;;;;;;;;;5018476;28;20040;-77
2022/02/05 07:58:18;;;;;;;136.25;95.28;;;;;;;;;;5015231;28;20425;-76
2022/02/05 08:00:44;;;;;;;138.02;94.82;;;;;;;;;;5028799;28;20026;-76
2022/02/05 08:03:10;;;;;;;163.73;105.15;;;;;;;;;;5026645;28;20025;-76
2022/02/05 08:05:37;;;;;;;171.07;106.85;;;;;;;;;;5028629;28;20067;-77
2022/02/05 08:08:06;;;;;;;159.70;102.80;;;;;;;;;;5030261;28;20022;-77
2022/02/05 08:10:36;;;;;;;150.35;98.80;;;;;;;;;;5029864;28;20029;-75
2022/02/05 08:13:03;;;;;;;144.38;93.65;;;;;;;;;;5025496;28;20009;-75
2022/02/05 08:15:31;;;;;;;163.05;103.13;;;;;;;;;;5030234;28;20510;-75
2022/02/05 08:17:58;;;;;;;148.05;98.85;;;;;;;;;;5028022;28;20036;-75
2022/02/05 08:20:24;;;;;;;155.00;96.47;;;;;;;;;;5030000;28;20045;-76
2022/02/05 08:22:51;;;;;;;182.57;118.90;;;;;;;;;;5027336;28;20021;-75
2022/02/05 08:25:17;;;;;;;139.90;96.30;;;;;;;;;;5031717;28;20108;-76
2022/02/05 08:27:43;;;;;;;151.18;99.82;;;;;;;;;;5028988;28;20036;-77
2022/02/05 08:30:12;;;;;;;151.93;103.07;;;;;;;;;;5029469;28;20572;-76
2022/02/05 08:32:38;;;;;;;163.15;111.25;;;;;;;;;;5045886;28;20025;-76
2022/02/05 08:35:06;;;;;;;154.85;105.70;;;;;;;;;;5027941;28;20013;-76
2022/02/05 08:37:35;;;;;;;143.68;96.93;;;;;;;;;;5045060;28;20380;-76
2022/02/05 08:40:01;;;;;;;138.10;96.13;;;;;;;;;;5029864;28;20052;-75
2022/02/05 08:42:27;;;;;;;141.05;98.03;;;;;;;;;;5029864;28;20072;-76
2022/02/05 08:44:54;;;;;;;140.05;93.57;;;;;;;;;;5028621;28;20020;-76
2022/02/05 08:47:20;;;;;;;151.73;103.40;;;;;;;;;;5028818;28;20054;-76
2022/02/05 08:49:46;;;;;;;143.65;101.05;;;;;;;;;;5029764;28;20030;-77
2022/02/05 08:52:12;;;;;;;163.15;105.40;;;;;;;;;;5027262;28;20029;-75
2022/02/05 08:54:39;;;;;;;152.45;105.82;;;;;;;;;;5029031;28;20047;-75
2022/02/05 08:57:08;;;;;;;158.68;108.32;;;;;;;;;;5025206;28;20033;-77
2022/02/05 08:59:47;;;;;;;147.98;105.88;;;;;;;;;;5028364;28;20028;-76
2022/02/05 09:02:20;;;;;;;155.23;106.78;;;;;;;;;;5027007;28;20026;-77
2022/02/05 09:05:34;;;;;;;150.65;106.15;;;;;;;;;;5027422;28;20037;-76
2022/02/05 09:07:40;;;;;;;178.85;118.88;;;;;;;;;;5027928;28;20052;-75
2022/02/05 09:10:38;;;;;;;173.52;116.53;;;;;;;;;;5029391;28;20045;-76
2022/02/05 09:15:38;;;;;;;140.98;99.68;;;;;;;;;;5025951;28;20029;-77
2022/02/05 09:18:04;;;;;;;140.65;94.50;;;;;;;;;;5025541;28;20072;-75
2022/02/05 09:20:31;;;;;;;169.70;115.40;;;;;;;;;;5029916;28;20033;-76
2022/02/05 09:22:57;;;;;;;169.50;116.72;;;;;;;;;;5028705;28;20096;-77
2022/02/05 09:25:26;;;;;;;191.38;134.88;;;;;;;;;;5026943;28;20025;-76
2022/02/05 09:27:52;;;;;;;197.77;134.00;;;;;;;;;;5024882;28;20030;-76
2022/02/05 09:30:28;;;;;;;225.07;147.80;;;;;;;;;;5028599;28;20025;-76
2022/02/05 09:32:54;;;;;;;234.23;148.55;;;;;;;;;;5028404;28;20034;-76
2022/02/05 09:35:20;;;;;;;221.13;147.40;;;;;;;;;;5028775;28;20041;-78
2022/02/05 09:37:47;;;;;;;242.88;166.30;;;;;;;;;;5027153;28;20029;-77
2022/02/05 09:40:13;;;;;;;228.90;154.68;;;;;;;;;;5028399;28;20035;-77
2022/02/05 09:42:44;;;;;;;229.07;151.75;;;;;;;;;;5026866;28;20100;-77
2022/02/05 09:45:10;;;;;;;251.10;161.00;;;;;;;;;;5028786;28;20104;-77
2022/02/05 09:47:37;;;;;;;210.63;142.40;;;;;;;;;;5027903;28;20056;-76
2022/02/05 09:50:04;;;;;;;206.13;140.85;;;;;;;;;;5025253;28;20024;-77
2022/02/05 09:52:30;;;;;;;220.20;143.07;;;;;;;;;;5028428;28;20093;-77
2022/02/05 09:54:56;;;;;;;202.82;132.48;;;;;;;;;;5028405;28;20022;-77
2022/02/05 09:57:22;;;;;;;168.30;115.03;;;;;;;;;;5027626;28;20030;-76
2022/02/05 09:59:55;;;;;;;168.55;118.80;;;;;;;;;;5027432;28;20018;-77
2022/02/05 10:02:29;;;;;;;177.63;114.93;;;;;;;;;;5026098;28;20024;-76
2022/02/05 10:05:03;;;;;;;194.43;126.82;;;;;;;;;;5013035;28;20125;-77
2022/02/05 10:07:30;;;;;;;192.57;130.23;;;;;;;;;;5024740;28;20040;-76
2022/02/05 10:09:57;;;;;;;124.85;87.03;;;;;;;;;;5029050;28;20022;-77
2022/02/05 10:12:23;;;;;;;140.18;93.75;;;;;;;;;;5024127;28;20424;-77
2022/02/05 10:14:51;;;;;;;172.27;107.63;;;;;;;;;;5026654;28;20022;-75
2022/02/05 10:17:17;;;;;;;139.30;98.25;;;;;;;;;;5025396;28;20022;-77
2022/02/05 10:19:46;;;;;;;177.43;122.55;;;;;;;;;;5025454;28;20469;-77
2022/02/05 10:22:13;;;;;;;184.98;125.30;;;;;;;;;;5025677;28;20160;-76
2022/02/05 10:24:52;;;;;;;170.05;115.78;;;;;;;;;;5024541;28;20526;-77
2022/02/05 10:27:39;;;;;;;160.52;111.97;;;;;;;;;;5017205;28;20498;-77
2022/02/05 10:30:08;;;;;;;170.15;116.60;;;;;;;;;;5023513;28;20017;-77
2022/02/05 10:32:40;;;;;;;128.27;89.90;;;;;;;;;;5026344;28;20017;-77
2022/02/05 10:35:20;;;;;;;166.10;110.38;;;;;;;;;;5029786;28;20029;-77
2022/02/05 10:37:56;;;;;;;138.95;96.60;;;;;;;;;;5030834;28;20526;-78
2022/02/05 10:40:46;;;;;;;141.27;98.55;;;;;;;;;;5030740;28;20029;-77
2022/02/05 10:43:10;;;;;;;108.13;77.18;;;;;;;;;;5031855;28;20542;-77
2022/02/05 10:45:43;;;;;;;105.70;73.47;;;;;;;;;;5028246;28;20411;-77
2022/02/05 10:48:10;;;;;;;111.95;81.30;;;;;;;;;;5029945;28;20037;-76
2022/02/05 10:50:36;;;;;;;136.50;98.38;;;;;;;;;;5028199;28;20018;-76
2022/02/05 10:53:15;;;;;;;134.15;100.20;;;;;;;;;;5032365;28;20021;-77
2022/02/05 10:55:51;;;;;;;129.63;93.57;;;;;;;;;;5028583;28;20013;-77
2022/02/05 10:58:31;;;;;;;122.78;87.80;;;;;;;;;;5026184;28;20152;-77
2022/02/05 11:06:59;;;;;;;170.60;116.93;;;;;;;;;;5026300;28;20048;-76
2022/02/05 11:09:25;;;;;;;159.68;113.97;;;;;;;;;;5031216;28;20048;-77
2022/02/05 11:20:03;;;;;;;169.77;123.70;;;;;;;;;;5020736;28;20077;-77
2022/02/05 11:22:29;;;;;;;156.55;107.95;;;;;;;;;;5015713;28;20026;-76
2022/02/05 11:24:55;;;;;;;144.45;101.50;;;;;;;;;;5027991;28;20020;-77
2022/02/05 11:27:22;;;;;;;145.13;100.28;;;;;;;;;;5018157;28;20113;-76
2022/02/05 11:29:48;;;;;;;146.27;100.57;;;;;;;;;;5026580;28;20017;-76
2022/02/05 11:32:26;;;;;;;133.55;95.43;;;;;;;;;;5028436;28;20121;-76
2022/02/05 11:35:18;;;;;;;119.80;82.55;;;;;;;;;;5026555;28;20486;-75
2022/02/05 11:38:15;;;;;;;143.90;100.10;;;;;;;;;;5020341;28;20396;-77
2022/02/05 11:40:44;;;;;;;160.40;111.88;;;;;;;;;;5023881;28;20034;-76
2022/02/05 11:43:30;;;;;;;182.23;128.82;;;;;;;;;;5048535;28;20029;-76
2022/02/05 11:46:05;;;;;;;211.40;139.20;;;;;;;;;;5021094;28;20042;-76
2022/02/05 11:48:40;;;;;;;183.43;131.60;;;;;;;;;;5025303;28;20386;-76
2022/02/05 11:51:09;;;;;;;176.23;127.80;;;;;;;;;;5028520;28;20021;-76
2022/02/05 11:53:55;;;;;;;177.35;125.68;;;;;;;;;;5030428;28;20021;-75
2022/02/05 11:56:21;;;;;;;183.32;135.07;;;;;;;;;;5029895;28;20057;-75
2022/02/05 11:59:00;;;;;;;205.30;147.02;;;;;;;;;;5030203;28;20044;-77
2022/02/05 12:01:36;;;;;;;197.10;139.07;;;;;;;;;;5012652;28;20064;-77
2022/02/05 12:04:14;;;;;;;202.05;140.73;;;;;;;;;;5015100;28;20065;-76
2022/02/05 12:06:54;;;;;;;238.52;177.02;;;;;;;;;;5031052;28;20073;-76
2022/02/05 12:09:33;;;;;;;225.50;165.63;;;;;;;;;;5031484;28;20361;-76
2022/02/05 12:12:17;;;;;;;243.30;179.88;;;;;;;;;;5023679;28;20029;-76
2022/02/05 12:15:03;;;;;;;239.10;176.90;;;;;;;;;;5017277;28;20036;-76
2022/02/05 12:17:39;;;;;;;252.23;181.95;;;;;;;;;;5018958;28;20029;-76
2022/02/05 12:20:10;;;;;;;233.68;171.23;;;;;;;;;;5029691;28;20111;-76
2022/02/05 12:22:54;;;;;;;235.52;172.30;;;;;;;;;;5029175;28;20060;-76
2022/02/05 12:25:21;;;;;;;228.75;167.43;;;179.90;2252.80;;;;;;5029574;28;20092;-75
2022/02/05 12:27:47;;;;;;;270.40;187.75;;;179.70;2252.80;;;;;;5027176;28;20083;-77
2022/02/05 12:30:38;;;;;;;268.40;195.07;;;179.60;2252.80;;;;;;5028573;28;20021;-76
2022/02/05 12:33:06;;;;;;;262.92;190.07;;;179.60;2252.80;;;;;;5026127;28;20033;-76
2022/02/05 12:35:33;;;;;;;281.33;205.98;;;179.70;2252.80;;;;;;5020153;28;20033;-76
2022/02/05 12:38:01;;;;;;;254.95;192.77;;;179.50;2252.80;;;;;;5027167;28;20030;-76
2022/02/05 12:40:28;;;;;;;271.80;202.35;;;179.70;2252.80;;;;;;5027879;28;20025;-76
2022/02/05 12:42:55;;;;;;;283.38;213.20;;;179.70;2252.80;;;;;;5027007;28;20059;-76
2022/02/05 12:45:58;;;;;;;259.80;199.13;;;179.70;2252.80;;;;;;5028982;28;20025;-76
2022/02/05 12:48:28;;;;;;;277.13;208.77;;;179.80;2252.80;;;;;;5025115;28;20092;-76
2022/02/05 12:50:57;;;;;;;271.88;201.73;;;179.70;2252.80;;;;;;5016469;28;20065;-78
2022/02/05 12:53:35;;;;;;;272.40;204.18;;;179.60;2252.80;;;;;;5012391;28;20033;-78
2022/02/05 12:56:21;;;;;;;265.10;201.00;;;179.50;2252.80;;;;;;5011728;28;20029;-77
2022/02/05 12:59:03;;;;;;;285.88;212.30;;;179.40;2252.80;;;;;;5011066;28;20045;-75
2022/02/05 13:01:30;;;;;;;285.45;215.55;;;;;;;;;;5011172;28;20037;-74
2022/02/05 13:04:12;;;;;;;302.10;222.63;;;;;;;;;;5017178;28;20021;-75
2022/02/05 13:06:38;;;;;;;308.75;232.75;;;;;;;;;;5012634;28;20124;-76
2022/02/05 13:09:17;;;;;;;301.58;223.00;;;;;;;;;;5011128;28;20123;-75
2022/02/05 13:11:43;;;;;;;302.10;227.60;;;;;;;;;;5014102;28;20033;-76
2022/02/05 13:14:09;;;;;;;284.25;222.18;;;;;;;;;;5021961;28;20022;-76
2022/02/05 13:16:41;;;;;;;297.35;226.45;;;;;;;;;;5028021;28;20051;-76
2022/02/05 13:19:22;;;;;;;280.38;208.43;;;;;;;;;;5019862;28;20477;-76
2022/02/05 13:27:31;;;;;;;257.48;197.73;;;;;;;;;;5030241;28;20045;-75
2022/02/05 13:33:36;;;;;;;267.17;205.38;;;;;;;;;;5029667;28;20112;-75
2022/02/05 13:35:28;;;;;;;255.90;193.95;;;;;;;;;;5019371;28;20064;-75
2022/02/05 13:37:57;;;;;;;256.70;192.32;;;;;;;;;;5013043;28;20056;-76
2022/02/05 13:40:29;;;;;;;289.35;216.23;;;;;;;;;;5020657;28;20109;-77
2022/02/05 13:43:04;;;;;;;268.58;197.73;;;;;;;;;;5029210;28;20496;-78
2022/02/05 13:45:35;;;;;;;264.90;205.05;;;;;;;;;;5027948;28;20017;-77
2022/02/05 13:48:04;;;;;;;260.10;196.18;;;;;;;;;;5030337;28;20045;-77
2022/02/05 13:50:37;;;;;;;274.60;190.13;;;;;;;;;;5029135;28;20025;-77
2022/02/05 13:53:06;;;;;;;278.15;198.32;;;;;;;;;;5031135;28;20022;-76
2022/02/05 13:55:32;;;;;;;315.33;230.45;;;;;;;;;;5028465;28;20029;-75
2022/02/05 13:58:00;;;;;;;279.65;205.63;;;;;;;;;;5030568;28;20032;-75
2022/02/05 14:00:38;;;;;;;269.13;191.45;;;;;;;;;;5026590;28;20033;-76
2022/02/05 14:03:06;;;;;;;278.08;205.13;;;;;;;;;;5010801;28;20036;-76
2022/02/05 14:05:32;;;;;;;263.17;193.23;;;;;;;;;;5011243;28;20480;-76
2022/02/05 14:07:58;;;;;;;282.42;213.10;;;;;;;;;;5014445;28;20037;-76
2022/02/05 14:10:24;;;;;;;310.35;230.40;;;;;;;;;;5026124;28;20029;-75
2022/02/05 14:12:55;;;;;;;330.60;239.82;;;;;;;;;;5027449;28;20029;-77
2022/02/05 14:15:22;;;;;;;293.20;218.45;;;;;;;;;;5028627;28;20017;-75
2022/02/05 14:17:48;;;;;;;292.20;215.93;;;;;;;;;;5030003;28;20029;-75
2022/02/05 14:20:16;;;;;;;292.13;210.48;;;;;;;;;;5031982;28;20541;-76
2022/02/05 14:22:48;;;;;;;280.55;199.45;;;;;;;;;;5028994;28;20040;-76
2022/02/05 14:25:22;;;;;;;267.83;196.63;;;;;;;;;;5024251;28;20743;-79
2022/02/05 14:28:05;;;;;;;253.77;181.48;;;;;;;;;;5014538;28;20034;-79
2022/02/05 14:30:33;;;;;;;268.92;196.60;;;;;;;;;;5014539;28;20489;-79
2022/02/05 14:33:03;;;;;;;255.38;183.88;;;;;;;;;;5020245;28;20026;-79
2022/02/05 14:36:20;;;;;;;256.27;187.40;;;;;;;;;;5034538;28;20028;-79
2022/02/05 14:41:00;;;;;;;286.67;215.75;;;;;;;;;;5018012;28;20029;-80
2022/02/05 14:43:26;;;;;;;305.95;228.43;;;;;;;;;;5024811;28;20057;-80
2022/02/05 14:45:54;;;;;;;305.98;229.15;;;;;;;;;;5024317;28;20865;-84
2022/02/05 14:48:20;;;;;;;294.45;220.57;;;;;;;;;;5033821;28;20476;-84
2022/02/05 14:50:46;;;;;;;318.92;237.45;;;;;;;;;;5029760;28;20496;-83
2022/02/05 14:53:12;;;;;;;340.40;265.45;;;;;;;;;;5030578;28;20018;-83
2022/02/05 14:55:38;;;;;;;368.17;266.55;;;;;;;;;;5029620;28;20029;-84
2022/02/05 14:58:05;;;;;;;400.65;301.55;;;;;;;;;;5030575;28;20480;-84
2022/02/05 15:00:31;;;;;;;483.52;368.25;;;;;;;;;;5033693;28;20025;-82
2022/02/05 15:02:57;;;;;;;380.95;286.13;;;;;;;;;;5033747;28;20372;-83
2022/02/05 15:05:24;;;;;;;348.17;269.30;;;;;;;;;;5025051;28;20034;-82
2022/02/05 15:07:50;;;;;;;372.15;277.67;;;;;;;;;;5023053;28;20037;-82
2022/02/05 15:10:17;;;;;;;458.02;335.45;;;;;;;;;;5026361;28;20546;-83
2022/02/05 15:12:43;;;;;;;328.80;238.82;;;;;;;;;;5024437;28;20022;-83
2022/02/05 15:15:21;;;;;;;289.63;218.27;;;;;;;;;;5031756;28;20028;-82
2022/02/05 15:17:47;;;;;;;285.98;217.63;;;;;;;;;;5029966;28;20028;-84
2022/02/05 15:20:15;;;;;;;314.48;239.95;;;;;;;;;;5029805;28;20101;-83
2022/02/05 15:22:41;;;;;;;341.23;250.35;;;;;;;;;;5029760;28;20238;-87
2022/02/05 15:25:11;;;;;;;317.88;232.15;;;;;;;;;;5029169;28;20028;-84
2022/02/05 15:27:37;;;;;;;347.38;251.18;;;;;;;;;;5021738;28;20033;-86
2022/02/05 15:30:03;;;;;;;326.23;238.48;;;;;;;;;;5021124;28;20105;-83
2022/02/05 15:32:29;;;;;;;347.20;251.10;;;;;;;;;;5024371;28;20022;-85
2022/02/05 15:34:56;;;;;;;367.90;269.92;;;;;;;;;;5025415;28;20060;-88
2022/02/05 15:37:24;;;;;;;401.83;287.63;;;;;;;;;;5029110;28;20022;-87
2022/02/05 15:40:13;;;;;;;433.13;302.90;;;;;;;;;;5031947;28;20021;-84
2022/02/05 15:45:41;;;;;;;409.08;294.65;;;;;;;;;;4970771;28;20042;-93
2022/02/05 15:48:07;;;;;;;416.52;300.42;;;;;;;;;;4953238;28;20039;-83
2022/02/05 15:50:33;;;;;;;454.83;326.85;;;;;;;;;;4986863;28;20396;-90
2022/02/05 15:52:59;;;;;;;459.75;326.75;;;;;;;;;;5017805;28;20389;-85
2022/02/05 15:55:28;;;;;;;479.85;352.00;;;;;;;;;;5031680;28;20032;-84
2022/02/05 15:58:01;;;;;;;492.25;359.95;;;;;;;;;;5032708;28;20025;-82
2022/02/05 16:00:30;;;;;;;466.08;338.55;;;;;;;;;;5032865;28;20025;-81
2022/02/05 16:02:56;;;;;;;465.85;344.00;;;;;;;;;;5019509;28;20031;-83
2022/02/05 16:05:22;;;;;;;401.63;284.33;;;;;;;;;;5030472;28;20030;-83
2022/02/05 16:07:48;;;;;;;367.70;262.92;;;;;;;;;;5022583;28;20037;-84
2022/02/05 16:10:15;;;;;;;392.60;279.02;;;;;;;;;;5024170;28;20029;-79
2022/02/05 16:12:44;;;;;;;297.35;214.35;;;;;;;;;;5025985;28;20108;-85
2022/02/05 16:15:10;;;;;;;409.38;302.50;;;;;;;;;;5032811;28;20056;-91
2022/02/05 16:17:36;;;;;;;395.30;293.92;;;;;;;;;;5026003;28;20037;-83
2022/02/05 16:20:03;;;;;;;424.30;302.67;;;;;;;;;;5032453;28;20025;-93
2022/02/05 16:22:29;;;;;;;421.02;301.50;;;;;;;;;;5033021;28;20167;-79
2022/02/05 16:24:55;;;;;;;455.23;327.02;;;;;;;;;;5024738;28;20018;-83
2022/02/05 16:27:24;;;;;;;456.67;337.77;;;;;;;;;;5014002;28;20034;-83
2022/02/05 16:29:50;;;;;;;492.08;370.15;;;;;;;;;;5019487;28;20022;-84
2022/02/05 16:32:16;;;;;;;549.42;413.77;;;;;;;;;;5026178;28;20060;-84
2022/02/05 16:34:49;;;;;;;535.60;414.35;;;;;;;;;;5031998;28;20401;-84
2022/02/05 16:37:15;;;;;;;691.50;498.90;;;;;;;;;;5018910;28;20018;-85
2022/02/05 16:39:44;;;;;;;526.83;381.30;;;;;;;;;;5032254;28;20030;-85
2022/02/05 16:42:10;;;;;;;513.97;375.67;;;;;;;;;;5025663;28;20076;-81
2022/02/05 16:44:36;;;;;;;512.72;380.45;;;;;;;;;;5024655;28;20104;-88
2022/02/05 16:47:03;;;;;;;488.65;365.33;;;;;;;;;;5021655;28;20041;-92
2022/02/05 16:49:29;;;;;;;460.70;320.45;;;;;;;;;;5033658;28;20071;-90
2022/02/05 16:51:55;;;;;;;446.75;326.75;;;;;;;;;;5027375;28;20025;-77
2022/02/05 16:54:22;;;;;;;451.63;329.92;;;;;;;;;;5033508;28;20021;-92